createdAt,value
2018-07-24T00:01:08.262Z,100308.11
2018-07-24T00:11:11.362Z,100311.05
2018-07-24T00:21:14.346Z,100307.33
2018-07-24T00:31:17.977Z,100302.33
2018-07-24T00:41:20.982Z,100303.05
2018-07-24T00:51:23.973Z,100298.13
2018-07-24T01:01:27.379Z,100291.24
2018-07-24T01:11:30.438Z,100295.38
2018-07-24T01:21:33.407Z,100297.13
2018-07-24T01:31:36.493Z,100293.07
2018-07-24T01:41:39.702Z,100286.55
2018-07-24T01:51:42.762Z,100280.36
2018-07-24T02:01:45.738Z,100281.11
2018-07-24T02:11:48.868Z,100277.80
2018-07-24T02:21:52.498Z,100281.41
2018-07-24T02:31:55.570Z,100277.92
2018-07-24T02:41:58.778Z,100282.17
2018-07-24T02:52:02.355Z,100288.70
2018-07-24T03:02:06.102Z,100295.52
2018-07-24T03:12:09.134Z,100293.77
2018-07-24T03:22:13.381Z,100286.47
2018-07-24T03:32:16.420Z,100303.73
2018-07-24T03:42:19.666Z,100306.23
2018-07-24T03:52:22.761Z,100314.87
2018-07-24T04:02:25.882Z,100321.52
2018-07-24T04:12:28.810Z,100325.47
2018-07-24T04:22:32.423Z,100324.25
2018-07-24T04:32:35.750Z,100324.63
2018-07-24T04:42:38.938Z,100325.82
2018-07-24T04:52:41.944Z,100330.69
2018-07-24T05:02:45.043Z,100324.93
2018-07-24T05:12:48.637Z,100325.17
2018-07-24T05:22:51.693Z,100319.80
2018-07-24T05:32:54.846Z,100326.95
2018-07-24T05:42:58.284Z,100331.11
2018-07-24T05:53:01.526Z,100337.81
2018-07-24T06:03:04.634Z,100328.44
2018-07-24T06:13:07.790Z,100333.42
2018-07-24T06:23:10.889Z,100332.80
2018-07-24T06:33:14.070Z,100333.91
2018-07-24T06:43:17.190Z,100328.35
2018-07-24T06:53:20.338Z,100332.37
2018-07-24T07:03:23.557Z,100331.97
2018-07-24T07:13:26.690Z,100324.77
2018-07-24T07:23:29.926Z,100323.77
2018-07-24T07:33:33.213Z,100310.03
2018-07-24T07:43:36.666Z,100297.84
2018-07-24T07:53:39.745Z,100296.57
2018-07-24T08:03:42.909Z,100287.81
2018-07-24T08:13:46.132Z,100280.39
2018-07-24T08:23:49.171Z,100278.14
2018-07-24T08:33:52.357Z,100268.25
2018-07-24T08:43:55.796Z,100260.78
2018-07-24T08:53:59.084Z,100258.91
2018-07-24T09:04:01.986Z,100257.81
2018-07-24T09:14:05.088Z,100249.19
2018-07-24T09:24:08.305Z,100242.38
2018-07-24T09:34:11.342Z,100229.77
2018-07-24T09:44:14.620Z,100218.46
2018-07-24T09:54:17.750Z,100215.50
2018-07-24T10:04:20.853Z,100214.39
2018-07-24T10:14:23.961Z,100199.65
2018-07-24T10:24:27.095Z,100189.71
2018-07-24T10:34:30.260Z,100193.63
2018-07-24T10:44:33.389Z,100188.70
2018-07-24T10:54:37.170Z,100172.41
2018-07-24T11:04:40.320Z,100161.81
2018-07-24T11:14:44.028Z,100156.91
2018-07-24T11:24:47.394Z,100137.56
2018-07-24T11:34:50.653Z,100135.83
2018-07-24T11:44:55.356Z,100125.42
2018-07-24T11:54:58.628Z,100114.06
2018-07-24T12:05:01.750Z,100108.09
2018-07-24T12:15:05.636Z,100091.75
2018-07-24T12:25:08.702Z,100093.31
2018-07-24T12:35:11.774Z,100083.38
2018-07-24T12:45:14.937Z,100090.66
2018-07-24T12:55:18.018Z,100084.46
2018-07-24T13:05:21.256Z,100073.67
2018-07-24T13:15:24.383Z,100067.83
2018-07-24T13:25:27.499Z,100058.91
2018-07-24T13:35:30.656Z,100052.19
2018-07-24T13:45:33.763Z,100044.10
2018-07-24T13:55:36.926Z,100033.20
2018-07-24T14:05:40.079Z,100031.31
